Port Sulphur, Louisiana
Current Conditions -  °F | °C
As of 1:20 PM on Thursday 30 Oct 2014 (Local Time) from K1B7 Reporting Station
Clear Clear  
Wind Chill: 72°   Ceiling: Unl
Heat Index: 72°   Visibility: 10mi
Dew Point: 55°   Wind: 17mph
Humidity: 57%   Direction: 60°ENE
Pressure: 30.05"   Gusts: NA
Location:  29.49°N, 89.71°W
Report Text: K1B7 301820Z 06015KT 10SM SKC 22/13 A3005
Loading
Personal Weather Stations






























Interactive Weather Map
Tropical Storm Tracking
New forecast layout! Learn more

10-Day Weather Forecast

Advertisements
Track Severe Weather on mobile